Time,TemperatureF,DewpointF,PressureIn,WindDirection,WindDirectionDegrees,WindSpeedMPH,WindSpeedGustMPH,Humidity,HourlyPrecipIn,Conditions,Clouds,dailyrainin,SoftwareType,DateUTC
2013-04-11 00:00:00,41.0,35.3,29.89,NE,45,2.3,2.3,80,0.00,CLR,BKN,0.05,WeatherDisplay:10.37,2013-04-10 22:00:00,
2013-04-11 00:05:00,41.0,35.3,29.88,NE,45,1.6,1.6,80,0.00,CLR,BKN,0.05,WeatherDisplay:10.37,2013-04-10 22:05:00,
2013-04-11 00:10:00,41.0,35.6,29.89,North,0,1.6,1.6,81,0.00,CLR,BKN,0.05,WeatherDisplay:10.37,2013-04-10 22:10:00,
2013-04-11 00:16:00,40.8,35.7,29.88,SE,135,1.6,1.6,82,0.00,CLR,BKN,0.05,WeatherDisplay:10.37,2013-04-10 22:16:00,
2013-04-11 00:21:00,40.6,35.6,29.88,SE,135,1.6,1.6,82,0.00,CLR,BKN,0.05,WeatherDisplay:10.37,2013-04-10 22:21:00,
2013-04-11 00:27:00,40.5,35.4,29.89,SW,225,2.3,2.3,82,0.00,CLR,BKN,0.05,WeatherDisplay:10.37,2013-04-10 22:27:00,
2013-04-11 00:33:00,40.3,35.2,29.89,NW,315,2.2,2.2,82,0.00,CLR,BKN,0.05,WeatherDisplay:10.37,2013-04-10 22:33:00,
2013-04-11 00:38:00,40.3,35.2,29.89,West,270,1.6,1.6,82,0.00,CLR,BKN,0.05,WeatherDisplay:10.37,2013-04-10 22:38:00,
2013-04-11 00:43:00,40.1,35.0,29.90,South,180,1.6,1.6,82,0.00,CLR,BKN,0.05,WeatherDisplay:10.37,2013-04-10 22:43:00,
2013-04-11 00:48:00,40.1,35.4,29.90,South,180,2.3,2.3,83,0.00,CLR,BKN,0.05,WeatherDisplay:10.37,2013-04-10 22:48:00,
2013-04-11 00:53:00,39.9,35.2,29.89,SW,225,3.5,0.0,83,0.00,CLR,BKN,0.05,WeatherDisplay:10.37,2013-04-10 22:53:00,
2013-04-11 00:58:00,39.9,35.2,29.89,SE,135,2.3,2.3,83,0.00,CLR,BKN,0.05,WeatherDisplay:10.37,2013-04-10 22:58:00,
2013-04-11 01:03:00,39.9,35.2,29.90,NE,45,1.6,1.6,83,0.00,CLR,BKN,0.05,WeatherDisplay:10.37,2013-04-10 23:03:00,
2013-04-11 01:08:00,39.7,35.0,29.90,NE,45,2.3,2.3,83,0.00,CLR,BKN,0.05,WeatherDisplay:10.37,2013-04-10 23:08:00,
2013-04-11 01:13:00,39.6,34.8,29.90,NE,45,1.2,0.0,83,0.00,CLR,BKN,0.05,WeatherDisplay:10.37,2013-04-10 23:13:00,
2013-04-11 01:18:00,39.4,34.6,29.89,East,90,1.6,1.6,83,0.00,CLR,BKN,0.05,WeatherDisplay:10.37,2013-04-10 23:18:00,
2013-04-11 01:23:00,39.2,34.5,29.90,East,90,3.5,3.5,83,0.00,CLR,BKN,0.05,WeatherDisplay:10.37,2013-04-10 23:23:00,
2013-04-11 01:28:00,39.0,34.6,29.89,ESE,112,3.5,3.5,84,0.00,CLR,BKN,0.05,WeatherDisplay:10.37,2013-04-10 23:28:00,
2013-04-11 01:33:00,38.8,34.4,29.90,East,90,2.3,2.3,84,0.00,CLR,BKN,0.05,WeatherDisplay:10.37,2013-04-10 23:33:00,
2013-04-11 01:38:00,38.7,34.2,29.90,East,90,2.3,2.3,84,0.00,CLR,BKN,0.05,WeatherDisplay:10.37,2013-04-10 23:38:00,
2013-04-11 01:43:00,38.3,33.9,29.90,NW,315,2.3,0.0,84,0.00,CLR,BKN,0.05,WeatherDisplay:10.37,2013-04-10 23:43:00,
2013-04-11 01:48:00,38.3,33.9,29.90,NW,315,1.2,0.0,84,0.00,CLR,BKN,0.05,WeatherDisplay:10.37,2013-04-10 23:48:00,
2013-04-11 01:54:00,38.1,33.7,29.90,SE,135,2.3,2.3,84,0.00,CLR,BKN,0.05,WeatherDisplay:10.37,2013-04-10 23:54:00,
2013-04-11 01:59:00,37.9,33.5,29.90,SE,135,3.5,3.5,84,0.00,CLR,BKN,0.05,WeatherDisplay:10.37,2013-04-10 23:59:00,
2013-04-11 02:04:00,37.9,33.5,29.90,SE,135,2.3,2.3,84,0.00,CLR,BKN,0.05,WeatherDisplay:10.37,2013-04-11 00:04:00,
2013-04-11 02:09:00,37.9,33.5,29.90,SE,135,2.3,2.3,84,0.00,CLR,BKN,0.05,WeatherDisplay:10.37,2013-04-11 00:09:00,
2013-04-11 02:14:00,37.8,33.4,29.90,South,180,1.6,0.0,84,0.00,CLR,BKN,0.05,WeatherDisplay:10.37,2013-04-11 00:14:00,
2013-04-11 02:19:00,37.6,33.2,29.89,SE,135,2.3,2.3,84,0.00,CLR,BKN,0.05,WeatherDisplay:10.37,2013-04-11 00:19:00,
2013-04-11 02:24:00,37.4,33.0,29.89,East,90,1.6,1.6,84,0.00,CLR,BKN,0.05,WeatherDisplay:10.37,2013-04-11 00:24:00,
2013-04-11 02:29:00,37.4,33.0,29.89,East,90,1.2,0.0,84,0.00,CLR,BKN,0.05,WeatherDisplay:10.37,2013-04-11 00:29:00,
2013-04-11 02:34:00,37.2,31.6,29.89,East,90,0.0,0.0,80,0.00,CLR,BKN,0.05,WeatherDisplay:10.37,2013-04-11 00:34:00,
2013-04-11 02:39:00,37.2,31.6,29.89,East,90,0.0,0.0,80,0.00,CLR,BKN,0.05,WeatherDisplay:10.37,2013-04-11 00:39:00,
2013-04-11 02:44:00,37.0,31.4,29.90,SE,135,1.6,1.6,80,0.00,CLR,BKN,0.05,WeatherDisplay:10.37,2013-04-11 00:44:00,
2013-04-11 02:49:00,37.0,31.4,29.90,SW,225,3.5,3.5,80,0.00,CLR,BKN,0.05,WeatherDisplay:10.37,2013-04-11 00:49:00,
2013-04-11 02:54:00,37.0,31.4,29.90,NE,45,1.2,0.0,80,0.00,CLR,BKN,0.05,WeatherDisplay:10.37,2013-04-11 00:54:00,
2013-04-11 02:59:00,37.0,31.4,29.90,NW,315,1.2,0.0,80,0.00,CLR,BKN,0.05,WeatherDisplay:10.37,2013-04-11 00:59:00,
2013-04-11 03:04:00,36.9,31.3,29.90,NW,315,0.0,0.0,80,0.00,CLR,BKN,0.05,WeatherDisplay:10.37,2013-04-11 01:04:00,
2013-04-11 03:09:00,36.9,31.3,29.90,North,0,1.2,0.0,80,0.00,CLR,BKN,0.05,WeatherDisplay:10.37,2013-04-11 01:09:00,
2013-04-11 03:14:00,36.7,31.1,29.90,North,0,1.2,0.0,80,0.00,CLR,BKN,0.05,WeatherDisplay:10.37,2013-04-11 01:14:00,
2013-04-11 03:19:00,36.7,31.4,29.90,NE,45,3.5,3.5,81,0.00,CLR,BKN,0.05,WeatherDisplay:10.37,2013-04-11 01:19:00,
2013-04-11 03:24:00,36.5,31.2,29.90,NE,45,1.6,0.0,81,0.00,CLR,BKN,0.05,WeatherDisplay:10.37,2013-04-11 01:24:00,
2013-04-11 03:29:00,36.3,31.0,29.90,East,90,1.2,0.0,81,0.00,CLR,BKN,0.05,WeatherDisplay:10.37,2013-04-11 01:29:00,
2013-04-11 03:34:00,36.1,30.9,29.90,SE,135,1.2,0.0,81,0.00,CLR,BKN,0.05,WeatherDisplay:10.37,2013-04-11 01:34:00,
2013-04-11 03:39:00,36.0,30.7,29.90,SE,135,0.0,0.0,81,0.00,CLR,BKN,0.05,WeatherDisplay:10.37,2013-04-11 01:39:00,
2013-04-11 03:44:00,35.8,30.5,29.91,SE,135,0.0,0.0,81,0.00,CLR,BKN,0.05,WeatherDisplay:10.37,2013-04-11 01:44:00,
2013-04-11 03:49:00,35.6,30.3,29.91,SE,135,1.2,1.2,81,0.00,CLR,BKN,0.05,WeatherDisplay:10.37,2013-04-11 01:49:00,
2013-04-11 03:55:00,35.6,30.3,29.90,ESE,113,0.0,2.0,81,0.00,CLR,BKN,0.05,WeatherDisplay:10.37,2013-04-11 01:55:00,
2013-04-11 04:00:00,35.4,30.5,29.91,ESE,102,1.0,2.0,82,0.00,CLR,BKN,0.05,WeatherDisplay:10.37,2013-04-11 02:00:00,
2013-04-11 04:05:00,35.4,30.5,29.91,NE,45,1.6,1.6,82,0.00,CLR,BKN,0.05,WeatherDisplay:10.37,2013-04-11 02:05:00,
2013-04-11 04:10:00,35.1,29.8,29.90,East,90,1.2,0.0,81,0.00,CLR,BKN,0.05,WeatherDisplay:10.37,2013-04-11 02:10:00,
2013-04-11 04:15:00,34.9,29.6,29.90,SE,135,1.2,0.0,81,0.00,CLR,BKN,0.05,WeatherDisplay:10.37,2013-04-11 02:15:00,
2013-04-11 04:20:00,34.9,29.6,29.91,East,90,1.6,1.6,81,0.00,CLR,BKN,0.05,WeatherDisplay:10.37,2013-04-11 02:20:00,
2013-04-11 04:25:00,34.7,29.5,29.90,NE,45,2.3,2.3,81,0.00,CLR,BKN,0.05,WeatherDisplay:10.37,2013-04-11 02:25:00,
2013-04-11 04:30:00,34.7,29.5,29.91,NE,45,3.5,3.5,81,0.00,CLR,BKN,0.05,WeatherDisplay:10.37,2013-04-11 02:30:00,
2013-04-11 04:35:00,34.7,29.8,29.90,South,180,2.2,2.2,82,0.00,CLR,BKN,0.05,WeatherDisplay:10.37,2013-04-11 02:35:00,
2013-04-11 04:40:00,34.7,29.8,29.90,South,180,1.6,0.0,82,0.00,CLR,BKN,0.05,WeatherDisplay:10.37,2013-04-11 02:40:00,
2013-04-11 04:45:00,34.7,29.8,29.91,South,180,1.2,0.0,82,0.00,CLR,BKN,0.05,WeatherDisplay:10.37,2013-04-11 02:45:00,
2013-04-11 04:50:00,34.5,29.6,29.90,South,180,0.0,0.0,82,0.00,CLR,BKN,0.05,WeatherDisplay:10.37,2013-04-11 02:50:00,
2013-04-11 04:55:00,34.5,29.6,29.91,South,180,0.0,0.0,82,0.00,CLR,BKN,0.05,WeatherDisplay:10.37,2013-04-11 02:55:00,
2013-04-11 05:00:00,34.5,29.6,29.91,South,180,1.6,1.6,82,0.00,CLR,BKN,0.05,WeatherDisplay:10.37,2013-04-11 03:00:00,
2013-04-11 05:05:00,34.5,29.6,29.91,South,180,1.6,0.0,82,0.00,CLR,BKN,0.05,WeatherDisplay:10.37,2013-04-11 03:05:00,
2013-04-11 05:10:00,34.5,29.6,29.90,SW,225,2.3,2.3,82,0.00,CLR,BKN,0.05,WeatherDisplay:10.37,2013-04-11 03:10:00,
2013-04-11 05:15:00,34.5,29.6,29.91,South,180,1.6,1.6,82,0.00,CLR,BKN,0.05,WeatherDisplay:10.37,2013-04-11 03:15:00,
2013-04-11 05:20:00,34.5,29.6,29.91,South,180,2.3,2.3,82,0.00,CLR,BKN,0.05,WeatherDisplay:10.37,2013-04-11 03:20:00,
2013-04-11 05:25:00,34.5,29.6,29.91,SW,225,2.3,2.3,82,0.00,CLR,BKN,0.05,WeatherDisplay:10.37,2013-04-11 03:25:00,
2013-04-11 05:30:00,34.5,29.6,29.91,NW,315,1.6,1.6,82,0.00,CLR,BKN,0.05,WeatherDisplay:10.37,2013-04-11 03:30:00,
2013-04-11 05:35:00,34.7,29.8,29.91,NE,45,0.0,0.0,82,0.00,CLR,BKN,0.05,WeatherDisplay:10.37,2013-04-11 03:35:00,
2013-04-11 05:40:00,34.7,30.1,29.91,SE,135,1.6,1.6,83,0.00,CLR,BKN,0.05,WeatherDisplay:10.37,2013-04-11 03:40:00,
2013-04-11 05:45:00,34.7,30.1,29.91,SE,135,1.6,1.6,83,0.00,CLR,BKN,0.05,WeatherDisplay:10.37,2013-04-11 03:45:00,
2013-04-11 05:50:00,34.5,29.9,29.91,East,90,2.3,2.3,83,0.00,CLR,BKN,0.05,WeatherDisplay:10.37,2013-04-11 03:50:00,
2013-04-11 05:55:00,34.3,29.4,29.91,East,90,2.3,2.3,82,0.00,CLR,BKN,0.05,WeatherDisplay:10.37,2013-04-11 03:55:00,
2013-04-11 06:00:00,34.2,29.3,29.91,East,90,1.0,2.0,82,0.00,CLR,BKN,0.05,WeatherDisplay:10.37,2013-04-11 04:00:00,
2013-04-11 06:01:00,34.2,29.2,29.91,SE,135,2.3,0.0,82,0.00,CLR,BKN,0.05,WeatherDisplay:10.37,2013-04-11 04:01:00,
2013-04-11 06:04:00,34.2,29.2,29.91,East,90,2.3,2.3,82,0.00,CLR,BKN,0.05,WeatherDisplay:10.37,2013-04-11 04:04:00,
2013-04-11 06:09:00,34.0,29.1,29.91,SE,135,1.2,1.2,82,0.00,CLR,BKN,0.05,WeatherDisplay:10.37,2013-04-11 04:09:00,
2013-04-11 06:14:00,34.0,29.1,29.91,East,90,1.2,0.0,82,0.00,CLR,BKN,0.05,WeatherDisplay:10.37,2013-04-11 04:14:00,
2013-04-11 06:19:00,34.0,29.1,29.91,NE,45,1.6,1.6,82,0.00,CLR,BKN,0.05,WeatherDisplay:10.37,2013-04-11 04:19:00,
2013-04-11 06:24:00,33.8,28.9,29.91,East,90,2.3,2.3,82,0.00,CLR,BKN,0.05,WeatherDisplay:10.37,2013-04-11 04:24:00,
2013-04-11 06:29:00,34.0,29.1,29.91,NE,45,1.2,0.0,82,0.00,CLR,BKN,0.05,WeatherDisplay:10.37,2013-04-11 04:29:00,
2013-04-11 06:34:00,34.0,29.4,29.92,SE,135,1.2,0.0,83,0.00,CLR,BKN,0.05,WeatherDisplay:10.37,2013-04-11 04:34:00,
2013-04-11 06:39:00,34.2,29.5,29.91,NE,45,1.2,0.0,83,0.00,CLR,BKN,0.05,WeatherDisplay:10.37,2013-04-11 04:39:00,
2013-04-11 06:44:00,34.2,29.5,29.91,NE,45,2.3,2.3,83,0.00,CLR,BKN,0.05,WeatherDisplay:10.37,2013-04-11 04:44:00,
2013-04-11 06:49:00,34.3,29.7,29.91,NE,45,2.3,2.3,83,0.00,CLR,BKN,0.05,WeatherDisplay:10.37,2013-04-11 04:49:00,
2013-04-11 06:54:00,34.5,29.9,29.91,NE,45,3.5,0.0,83,0.00,CLR,BKN,0.05,WeatherDisplay:10.37,2013-04-11 04:54:00,
2013-04-11 06:59:00,34.7,30.1,29.91,NE,45,2.3,2.3,83,0.00,CLR,BKN,0.05,WeatherDisplay:10.37,2013-04-11 04:59:00,
2013-04-11 07:04:00,34.9,30.2,29.91,NE,45,1.2,0.0,83,0.00,CLR,BKN,0.05,WeatherDisplay:10.37,2013-04-11 05:04:00,
2013-04-11 07:09:00,35.2,30.9,29.92,East,90,1.2,0.0,84,0.00,CLR,BKN,0.05,WeatherDisplay:10.37,2013-04-11 05:09:00,
2013-04-11 07:14:00,35.4,31.1,29.92,East,90,1.2,0.0,84,0.00,CLR,BKN,0.05,WeatherDisplay:10.37,2013-04-11 05:14:00,
2013-04-11 07:19:00,35.6,30.9,29.91,South,180,1.2,0.0,83,0.00,CLR,BKN,0.05,WeatherDisplay:10.37,2013-04-11 05:19:00,
2013-04-11 07:24:00,36.0,31.3,29.92,South,180,0.0,0.0,83,0.00,CLR,BKN,0.05,WeatherDisplay:10.37,2013-04-11 05:24:00,
2013-04-11 07:29:00,36.3,31.7,29.92,South,180,1.2,0.0,83,0.00,CLR,BKN,0.05,WeatherDisplay:10.37,2013-04-11 05:29:00,
2013-04-11 07:34:00,36.5,32.1,29.92,SW,225,2.3,2.3,84,0.00,CLR,BKN,0.05,WeatherDisplay:10.37,2013-04-11 05:34:00,
2013-04-11 07:39:00,37.2,32.8,29.92,West,270,1.6,1.6,84,0.00,CLR,BKN,0.05,WeatherDisplay:10.37,2013-04-11 05:39:00,
2013-04-11 07:44:00,37.8,34.5,29.92,South,180,3.5,3.5,88,0.00,CLR,BKN,0.05,WeatherDisplay:10.37,2013-04-11 05:44:00,
2013-04-11 07:49:00,38.7,35.7,29.92,SW,225,2.3,0.0,89,0.00,CLR,BKN,0.05,WeatherDisplay:10.37,2013-04-11 05:49:00,
2013-04-11 07:54:00,39.4,36.1,29.92,SW,225,2.3,2.3,88,0.00,CLR,BKN,0.05,WeatherDisplay:10.37,2013-04-11 05:54:00,
2013-04-11 07:59:00,40.3,37.3,29.92,SW,225,3.5,3.5,89,0.00,CLR,BKN,0.05,WeatherDisplay:10.37,2013-04-11 05:59:00,
2013-04-11 08:04:00,41.4,38.1,29.92,West,270,3.5,3.5,88,0.00,RA,BKN,0.00,WeatherDisplay:10.37,2013-04-11 06:04:00,
2013-04-11 08:09:00,41.9,38.9,29.92,SW,225,3.5,3.5,89,0.00,RA,BKN,0.00,WeatherDisplay:10.37,2013-04-11 06:09:00,
2013-04-11 08:14:00,42.8,39.2,29.92,West,270,3.5,3.5,87,0.00,CLR,BKN,0.00,WeatherDisplay:10.37,2013-04-11 06:14:00,
2013-04-11 08:19:00,43.3,39.7,29.92,South,180,2.3,0.0,87,0.00,CLR,BKN,0.00,WeatherDisplay:10.37,2013-04-11 06:19:00,
2013-04-11 08:24:00,44.1,40.1,29.93,NW,315,2.3,0.0,86,0.00,CLR,BKN,0.00,WeatherDisplay:10.37,2013-04-11 06:24:00,
2013-04-11 08:29:00,44.6,40.4,29.93,West,270,1.6,0.0,85,0.00,CLR,BKN,0.00,WeatherDisplay:10.37,2013-04-11 06:29:00,
2013-04-11 08:34:00,45.3,40.8,29.92,NE,45,2.2,2.2,84,0.00,CLR,BKN,0.00,WeatherDisplay:10.37,2013-04-11 06:34:00,
2013-04-11 08:39:00,46.0,41.2,29.91,North,0,3.5,3.5,83,0.00,CLR,BKN,0.00,WeatherDisplay:10.37,2013-04-11 06:39:00,
2013-04-11 08:44:00,46.8,41.9,29.92,ENE,68,2.3,2.3,83,0.00,CLR,BKN,0.00,WeatherDisplay:10.37,2013-04-11 06:44:00,
2013-04-11 08:49:00,47.7,42.4,29.92,SE,135,2.3,0.0,82,0.00,CLR,BKN,0.00,WeatherDisplay:10.37,2013-04-11 06:49:00,
2013-04-11 08:54:00,48.6,42.7,29.92,NE,45,3.5,3.5,80,0.00,CLR,BKN,0.00,WeatherDisplay:10.37,2013-04-11 06:54:00,
2013-04-11 08:59:00,49.1,42.5,29.92,NE,45,2.3,2.3,78,0.00,CLR,BKN,0.00,WeatherDisplay:10.37,2013-04-11 06:59:00,
2013-04-11 09:04:00,49.8,42.9,29.92,NE,45,3.5,3.5,77,0.00,CLR,BKN,0.00,WeatherDisplay:10.37,2013-04-11 07:04:00,
2013-04-11 09:09:00,50.2,42.6,29.92,SE,135,3.5,3.5,75,0.00,CLR,BKN,0.00,WeatherDisplay:10.37,2013-04-11 07:09:00,
2013-04-11 09:14:00,50.7,42.7,29.92,SE,135,3.5,3.5,74,0.00,CLR,BKN,0.00,WeatherDisplay:10.37,2013-04-11 07:14:00,
2013-04-11 09:19:00,51.3,42.9,29.92,SE,135,3.8,3.8,73,0.00,CLR,BKN,0.00,WeatherDisplay:10.37,2013-04-11 07:19:00,
2013-04-11 09:24:00,51.8,43.1,29.92,NW,315,4.6,4.6,72,0.00,CLR,BKN,0.00,WeatherDisplay:10.37,2013-04-11 07:24:00,
2013-04-11 09:29:00,52.2,42.7,29.92,ESE,112,3.8,3.8,70,0.00,CLR,BKN,0.00,WeatherDisplay:10.37,2013-04-11 07:29:00,
2013-04-11 09:34:00,52.5,43.0,29.92,SW,225,3.5,3.5,70,0.00,CLR,BKN,0.00,WeatherDisplay:10.37,2013-04-11 07:34:00,
2013-04-11 09:39:00,52.9,43.4,29.92,NW,315,3.8,3.8,70,0.00,CLR,BKN,0.00,WeatherDisplay:10.37,2013-04-11 07:39:00,
2013-04-11 09:44:00,53.2,43.3,29.92,West,270,3.8,3.8,69,0.00,CLR,BKN,0.00,WeatherDisplay:10.37,2013-04-11 07:44:00,
2013-04-11 09:49:00,53.6,42.9,29.92,NW,315,2.3,2.3,67,0.00,CLR,BKN,0.00,WeatherDisplay:10.37,2013-04-11 07:49:00,
2013-04-11 09:54:00,54.1,43.4,29.92,SW,225,4.6,4.6,67,0.00,CLR,BKN,0.00,WeatherDisplay:10.37,2013-04-11 07:54:00,
2013-04-11 09:59:00,54.7,43.5,29.91,NW,315,3.5,3.5,66,0.00,CLR,BKN,0.00,WeatherDisplay:10.37,2013-04-11 07:59:00,
2013-04-11 10:04:00,55.2,43.2,29.91,SW,225,5.4,5.4,64,0.00,CLR,BKN,0.00,WeatherDisplay:10.37,2013-04-11 08:04:00,
2013-04-11 10:09:00,56.1,44.1,29.92,WSW,248,5.8,5.8,64,0.00,CLR,BKN,0.00,WeatherDisplay:10.37,2013-04-11 08:09:00,
2013-04-11 10:14:00,56.5,43.6,29.92,SW,225,6.9,6.9,62,0.00,CLR,BKN,0.00,WeatherDisplay:10.37,2013-04-11 08:14:00,
2013-04-11 10:19:00,56.8,43.1,29.92,SW,225,6.9,6.9,60,0.00,CLR,BKN,0.00,WeatherDisplay:10.37,2013-04-11 08:19:00,
2013-04-11 10:24:00,57.2,42.5,29.92,South,180,4.6,4.6,58,0.00,CLR,BKN,0.00,WeatherDisplay:10.37,2013-04-11 08:24:00,
2013-04-11 10:29:00,58.1,43.4,29.91,South,180,8.1,8.1,58,0.00,CLR,BKN,0.00,WeatherDisplay:10.37,2013-04-11 08:29:00,
2013-04-11 10:34:00,58.6,44.3,29.91,South,180,5.8,5.8,59,0.00,CLR,BKN,0.00,WeatherDisplay:10.37,2013-04-11 08:34:00,
2013-04-11 10:39:00,59.0,42.8,29.91,SW,225,6.9,6.9,55,0.00,CLR,BKN,0.00,WeatherDisplay:10.37,2013-04-11 08:39:00,
2013-04-11 10:44:00,59.5,43.3,29.91,WSW,248,5.4,5.4,55,0.00,CLR,BKN,0.00,WeatherDisplay:10.37,2013-04-11 08:44:00,
2013-04-11 10:49:00,59.9,43.7,29.91,SW,225,10.4,10.4,55,0.00,CLR,BKN,0.00,WeatherDisplay:10.37,2013-04-11 08:49:00,
2013-04-11 10:54:00,60.4,44.2,29.91,SW,225,8.1,8.1,55,0.00,CLR,BKN,0.00,WeatherDisplay:10.37,2013-04-11 08:54:00,
2013-04-11 10:59:00,60.8,43.1,29.91,South,180,7.6,7.6,52,0.00,CLR,BKN,0.00,WeatherDisplay:10.37,2013-04-11 08:59:00,
2013-04-11 11:04:00,61.3,43.0,29.90,SE,135,8.3,8.3,51,0.00,CLR,BKN,0.00,WeatherDisplay:10.37,2013-04-11 09:04:00,
2013-04-11 11:09:00,61.7,42.9,29.90,SSE,158,10.4,10.4,50,0.00,CLR,BKN,0.00,WeatherDisplay:10.37,2013-04-11 09:09:00,
2013-04-11 11:14:00,62.2,43.9,29.90,SE,135,11.5,11.5,51,0.00,CLR,BKN,0.00,WeatherDisplay:10.37,2013-04-11 09:14:00,
2013-04-11 11:19:00,62.4,43.5,29.90,SE,135,11.5,11.5,50,0.00,BKN,,0.00,WeatherDisplay:10.37,2013-04-11 09:19:00,
2013-04-11 11:24:00,62.6,42.6,29.90,SE,135,9.2,9.2,48,0.00,BKN,,0.00,WeatherDisplay:10.37,2013-04-11 09:24:00,
2013-04-11 11:29:00,63.0,43.0,29.89,SE,135,12.7,12.7,48,0.00,BKN,,0.00,WeatherDisplay:10.37,2013-04-11 09:29:00,
2013-04-11 11:34:00,63.3,43.3,29.89,SW,225,13.7,13.7,48,0.00,BKN,,0.00,WeatherDisplay:10.37,2013-04-11 09:34:00,
2013-04-11 11:39:00,63.1,40.3,29.90,SSW,202,13.8,13.8,43,0.00,BKN,,0.00,WeatherDisplay:10.37,2013-04-11 09:39:00,
2013-04-11 11:44:00,63.3,41.6,29.89,South,180,15.0,15.0,45,0.00,BKN,,0.00,WeatherDisplay:10.37,2013-04-11 09:44:00,
2013-04-11 11:49:00,63.7,41.3,29.88,South,180,11.5,11.5,44,0.00,SCT,BKN,0.00,WeatherDisplay:10.37,2013-04-11 09:49:00,
2013-04-11 11:54:00,63.7,40.8,29.89,SW,225,15.2,15.2,43,0.00,SCT,BKN,0.00,WeatherDisplay:10.37,2013-04-11 09:54:00,
2013-04-11 11:59:00,63.9,41.5,29.89,SE,135,15.0,15.0,44,0.00,SCT,BKN,0.00,WeatherDisplay:10.37,2013-04-11 09:59:00,
2013-04-11 12:04:00,63.9,41.5,29.88,South,180,18.4,18.4,44,0.00,SCT,BKN,0.00,WeatherDisplay:10.37,2013-04-11 10:04:00,
2013-04-11 12:09:00,64.4,41.4,29.88,South,180,15.9,15.9,43,0.00,SCT,BKN,0.00,WeatherDisplay:10.37,2013-04-11 10:09:00,
2013-04-11 12:14:00,64.4,41.4,29.89,South,180,17.3,17.3,43,0.00,SCT,BKN,0.00,WeatherDisplay:10.37,2013-04-11 10:14:00,
2013-04-11 12:19:00,64.4,41.4,29.88,South,180,22.2,22.2,43,0.00,SCT,BKN,0.00,WeatherDisplay:10.37,2013-04-11 10:19:00,
2013-04-11 12:24:00,64.4,42.0,29.88,SE,135,12.7,12.7,44,0.00,SCT,BKN,0.00,WeatherDisplay:10.37,2013-04-11 10:24:00,
2013-04-11 12:29:00,64.8,41.7,29.88,SW,225,16.1,16.1,43,0.00,SCT,BKN,0.00,WeatherDisplay:10.37,2013-04-11 10:29:00,
2013-04-11 12:34:00,64.9,41.9,29.88,East,90,11.5,11.5,43,0.00,SCT,BKN,0.00,WeatherDisplay:10.37,2013-04-11 10:34:00,
2013-04-11 12:39:00,65.1,42.1,29.88,South,180,17.3,17.3,43,0.00,SCT,BKN,0.00,WeatherDisplay:10.37,2013-04-11 10:39:00,
2013-04-11 12:44:00,65.3,42.2,29.88,WSW,248,13.8,13.8,43,0.00,SCT,BKN,0.00,WeatherDisplay:10.37,2013-04-11 10:44:00,
2013-04-11 12:49:00,65.5,42.4,29.87,South,180,15.0,15.0,43,0.00,SCT,BKN,0.00,WeatherDisplay:10.37,2013-04-11 10:49:00,
2013-04-11 12:54:00,65.5,41.8,29.87,SW,225,16.1,16.1,42,0.00,SCT,BKN,0.00,WeatherDisplay:10.37,2013-04-11 10:54:00,
2013-04-11 12:59:00,64.8,41.1,29.87,NW,315,17.3,17.3,42,0.00,SCT,BKN,0.00,WeatherDisplay:10.37,2013-04-11 10:59:00,
2013-04-11 13:04:00,64.8,41.7,29.87,West,270,13.0,13.0,43,0.00,SCT,BKN,0.00,WeatherDisplay:10.37,2013-04-11 11:04:00,
2013-04-11 13:09:00,64.8,41.7,29.87,SW,225,15.0,15.0,43,0.00,SCT,BKN,0.00,WeatherDisplay:10.37,2013-04-11 11:09:00,
2013-04-11 13:14:00,64.8,42.3,29.87,South,180,15.0,15.0,44,0.00,SCT,BKN,0.00,WeatherDisplay:10.37,2013-04-11 11:14:00,
2013-04-11 13:19:00,64.9,41.9,29.88,South,180,18.4,18.4,43,0.00,SCT,BKN,0.00,WeatherDisplay:10.37,2013-04-11 11:19:00,
2013-04-11 13:24:00,65.1,42.7,29.87,South,180,16.1,16.1,44,0.00,SCT,BKN,0.00,WeatherDisplay:10.37,2013-04-11 11:24:00,
2013-04-11 13:29:00,65.3,42.8,29.88,SW,225,11.5,11.5,44,0.00,SCT,BKN,0.00,WeatherDisplay:10.37,2013-04-11 11:29:00,
2013-04-11 13:34:00,64.9,41.9,29.87,SW,225,17.3,17.3,43,0.00,SCT,BKN,0.00,WeatherDisplay:10.37,2013-04-11 11:34:00,
2013-04-11 13:39:00,64.8,41.7,29.87,SSW,202,18.4,18.4,43,0.00,SCT,BKN,0.00,WeatherDisplay:10.37,2013-04-11 11:39:00,
2013-04-11 13:44:00,64.6,42.2,29.86,South,180,19.6,19.6,44,0.00,SCT,BKN,0.00,WeatherDisplay:10.37,2013-04-11 11:44:00,
2013-04-11 13:49:00,64.8,42.3,29.87,SSW,202,17.3,17.3,44,0.00,CLR,BKN,0.00,WeatherDisplay:10.37,2013-04-11 11:49:00,
2013-04-11 13:54:00,64.8,42.3,29.87,South,180,18.4,18.4,44,0.00,CLR,BKN,0.00,WeatherDisplay:10.37,2013-04-11 11:54:00,
2013-04-11 13:59:00,64.9,43.1,29.87,South,180,17.3,17.3,45,0.00,CLR,BKN,0.00,WeatherDisplay:10.37,2013-04-11 11:59:00,
2013-04-11 14:04:00,64.9,43.1,29.87,South,180,13.0,13.0,45,0.00,CLR,BKN,0.00,WeatherDisplay:10.37,2013-04-11 12:04:00,
2013-04-11 14:09:00,65.1,42.7,29.87,South,180,15.0,15.0,44,0.00,CLR,BKN,0.00,WeatherDisplay:10.37,2013-04-11 12:09:00,
2013-04-11 14:14:00,65.1,42.7,29.86,South,180,15.0,15.0,44,0.00,CLR,BKN,0.00,WeatherDisplay:10.37,2013-04-11 12:14:00,
2013-04-11 14:19:00,65.5,43.0,29.86,South,180,17.5,17.5,44,0.00,SCT,BKN,0.00,WeatherDisplay:10.37,2013-04-11 12:19:00,
2013-04-11 14:24:00,65.7,43.1,29.85,SE,135,17.3,17.3,44,0.00,SCT,BKN,0.00,WeatherDisplay:10.37,2013-04-11 12:24:00,
2013-04-11 14:29:00,66.2,42.4,29.85,South,180,19.6,19.6,42,0.00,SCT,BKN,0.00,WeatherDisplay:10.37,2013-04-11 12:29:00,
2013-04-11 14:34:00,66.6,42.7,29.85,South,180,12.7,12.7,42,0.00,SCT,BKN,0.00,WeatherDisplay:10.37,2013-04-11 12:34:00,
2013-04-11 14:39:00,66.9,42.4,29.85,SE,135,17.5,17.5,41,0.00,SCT,BKN,0.00,WeatherDisplay:10.37,2013-04-11 12:39:00,
2013-04-11 14:44:00,66.7,42.3,29.85,South,180,18.4,18.4,41,0.00,SCT,BKN,0.00,WeatherDisplay:10.37,2013-04-11 12:44:00,
2013-04-11 14:49:00,66.4,42.0,29.84,South,180,12.7,12.7,41,0.00,SCT,BKN,0.00,WeatherDisplay:10.37,2013-04-11 12:49:00,
2013-04-11 14:54:00,66.4,42.0,29.84,SW,225,17.3,17.3,41,0.00,SCT,BKN,0.00,WeatherDisplay:10.37,2013-04-11 12:54:00,
2013-04-11 14:59:00,66.2,41.8,29.84,South,180,17.3,17.3,41,0.00,SCT,BKN,0.00,WeatherDisplay:10.37,2013-04-11 12:59:00,
2013-04-11 15:04:00,65.7,41.9,29.84,South,180,15.0,15.0,42,0.00,SCT,BKN,0.00,WeatherDisplay:10.37,2013-04-11 13:04:00,
2013-04-11 15:09:00,65.7,42.5,29.83,SW,225,12.7,12.7,43,0.00,SCT,BKN,0.00,WeatherDisplay:10.37,2013-04-11 13:09:00,
2013-04-11 15:14:00,66.0,42.9,29.83,South,180,17.3,17.3,43,0.00,SCT,BKN,0.00,WeatherDisplay:10.37,2013-04-11 13:14:00,
2013-04-11 15:19:00,66.2,43.0,29.84,SE,135,17.5,17.5,43,0.00,SCT,BKN,0.00,WeatherDisplay:10.37,2013-04-11 13:19:00,
2013-04-11 15:24:00,66.6,43.4,29.83,SW,225,15.0,15.0,43,0.00,SCT,BKN,0.00,WeatherDisplay:10.37,2013-04-11 13:24:00,
2013-04-11 15:29:00,67.1,43.2,29.84,SE,135,15.0,15.0,42,0.00,SCT,BKN,0.00,WeatherDisplay:10.37,2013-04-11 13:29:00,
2013-04-11 15:34:00,67.3,42.8,29.84,NNE,22,17.3,17.3,41,0.00,SCT,BKN,0.00,WeatherDisplay:10.37,2013-04-11 13:34:00,
2013-04-11 15:39:00,66.7,41.0,29.83,South,180,15.0,15.0,39,0.00,SCT,BKN,0.00,WeatherDisplay:10.37,2013-04-11 13:39:00,
2013-04-11 15:44:00,66.4,41.3,29.83,South,180,12.7,12.7,40,0.00,SCT,BKN,0.00,WeatherDisplay:10.37,2013-04-11 13:44:00,
2013-04-11 15:49:00,66.4,41.3,29.83,South,180,18.4,18.4,40,0.00,SCT,BKN,0.00,WeatherDisplay:10.37,2013-04-11 13:49:00,
2013-04-11 15:54:00,65.8,41.5,29.83,South,180,12.7,12.7,41,0.00,SCT,BKN,0.00,WeatherDisplay:10.37,2013-04-11 13:54:00,
2013-04-11 15:59:00,66.4,42.0,29.83,South,180,15.9,15.9,41,0.00,SCT,BKN,0.00,WeatherDisplay:10.37,2013-04-11 13:59:00,
2013-04-11 16:04:00,66.4,42.0,29.82,South,180,16.1,16.1,41,0.00,SCT,BKN,0.00,WeatherDisplay:10.37,2013-04-11 14:04:00,
2013-04-11 16:09:00,66.2,41.8,29.82,SE,135,16.1,16.1,41,0.00,SCT,BKN,0.00,WeatherDisplay:10.37,2013-04-11 14:09:00,
2013-04-11 16:14:00,66.2,41.8,29.82,SSW,202,18.4,18.4,41,0.00,SCT,BKN,0.00,WeatherDisplay:10.37,2013-04-11 14:14:00,
2013-04-11 16:19:00,66.2,41.8,29.82,South,180,19.6,19.6,41,0.00,CLR,BKN,0.00,WeatherDisplay:10.37,2013-04-11 14:19:00,
2013-04-11 16:24:00,65.5,41.8,29.82,SSW,202,17.3,17.3,42,0.00,CLR,BKN,0.00,WeatherDisplay:10.37,2013-04-11 14:24:00,
2013-04-11 16:29:00,65.5,41.8,29.82,South,180,16.8,16.8,42,0.00,CLR,BKN,0.00,WeatherDisplay:10.37,2013-04-11 14:29:00,
2013-04-11 16:34:00,65.5,41.8,29.82,South,180,13.8,13.8,42,0.00,CLR,BKN,0.00,WeatherDisplay:10.37,2013-04-11 14:34:00,
2013-04-11 16:39:00,65.8,42.7,29.81,SSW,202,13.8,13.8,43,0.00,CLR,BKN,0.00,WeatherDisplay:10.37,2013-04-11 14:39:00,
2013-04-11 16:44:00,66.0,42.9,29.82,SW,225,19.7,19.7,43,0.00,CLR,BKN,0.00,WeatherDisplay:10.37,2013-04-11 14:44:00,
2013-04-11 16:49:00,65.5,41.8,29.82,SSW,202,17.3,17.3,42,0.00,CLR,BKN,0.00,WeatherDisplay:10.37,2013-04-11 14:49:00,
2013-04-11 16:54:00,65.5,41.8,29.81,South,180,15.0,15.0,42,0.00,CLR,BKN,0.00,WeatherDisplay:10.37,2013-04-11 14:54:00,
2013-04-11 16:59:00,65.3,41.6,29.81,SW,225,13.0,13.0,42,0.00,CLR,BKN,0.00,WeatherDisplay:10.37,2013-04-11 14:59:00,
2013-04-11 17:04:00,64.9,41.9,29.81,South,180,12.7,12.7,43,0.00,CLR,BKN,0.00,WeatherDisplay:10.37,2013-04-11 15:04:00,
2013-04-11 17:09:00,64.8,42.3,29.81,South,180,15.0,15.0,44,0.00,CLR,BKN,0.00,WeatherDisplay:10.37,2013-04-11 15:09:00,
2013-04-11 17:14:00,64.6,42.2,29.81,ESE,112,15.0,15.0,44,0.00,CLR,BKN,0.00,WeatherDisplay:10.37,2013-04-11 15:14:00,
2013-04-11 17:19:00,64.4,42.6,29.80,ESE,112,10.7,10.7,45,0.00,CLR,BKN,0.00,WeatherDisplay:10.37,2013-04-11 15:19:00,
2013-04-11 17:24:00,64.4,42.6,29.81,SW,225,12.7,12.7,45,0.00,CLR,BKN,0.00,WeatherDisplay:10.37,2013-04-11 15:24:00,
2013-04-11 17:29:00,64.4,42.6,29.81,South,180,13.8,13.8,45,0.00,CLR,BKN,0.00,WeatherDisplay:10.37,2013-04-11 15:29:00,
2013-04-11 17:34:00,64.2,42.4,29.81,South,180,9.2,9.2,45,0.00,CLR,BKN,0.00,WeatherDisplay:10.37,2013-04-11 15:34:00,
2013-04-11 17:39:00,64.0,41.1,29.80,South,180,17.3,17.3,43,0.00,CLR,BKN,0.00,WeatherDisplay:10.37,2013-04-11 15:39:00,
2013-04-11 17:44:00,63.9,40.9,29.80,South,180,12.7,12.7,43,0.00,CLR,BKN,0.00,WeatherDisplay:10.37,2013-04-11 15:44:00,
2013-04-11 17:49:00,63.7,40.8,29.79,South,180,15.0,15.0,43,0.00,CLR,BKN,0.00,WeatherDisplay:10.37,2013-04-11 15:49:00,
2013-04-11 17:54:00,63.5,40.0,29.79,South,180,15.0,15.0,42,0.00,CLR,BKN,0.00,WeatherDisplay:10.37,2013-04-11 15:54:00,
2013-04-11 17:59:00,63.3,39.2,29.79,South,180,9.2,9.2,41,0.00,CLR,BKN,0.00,WeatherDisplay:10.37,2013-04-11 15:59:00,
2013-04-11 18:04:00,63.3,39.2,29.81,SW,225,15.0,15.0,41,0.00,CLR,BKN,0.00,WeatherDisplay:10.37,2013-04-11 16:04:00,
2013-04-11 18:09:00,63.3,39.8,29.80,SE,135,10.4,10.4,42,0.00,CLR,BKN,0.00,WeatherDisplay:10.37,2013-04-11 16:09:00,
2013-04-11 18:14:00,63.5,40.6,29.80,SE,135,11.5,11.5,43,0.00,CLR,BKN,0.00,WeatherDisplay:10.37,2013-04-11 16:14:00,
2013-04-11 18:19:00,63.5,41.8,29.81,SE,135,10.4,10.4,45,0.00,CLR,BKN,0.00,WeatherDisplay:10.37,2013-04-11 16:19:00,
2013-04-11 18:24:00,63.5,42.9,29.80,South,180,10.4,10.4,47,0.00,CLR,BKN,0.00,WeatherDisplay:10.37,2013-04-11 16:24:00,
2013-04-11 18:29:00,63.3,43.3,29.81,South,180,10.4,10.4,48,0.00,CLR,BKN,0.00,WeatherDisplay:10.37,2013-04-11 16:29:00,
2013-04-11 18:34:00,63.1,43.1,29.80,South,180,8.1,8.1,48,0.00,CLR,BKN,0.00,WeatherDisplay:10.37,2013-04-11 16:34:00,
2013-04-11 18:39:00,63.1,43.1,29.81,SE,135,8.1,8.1,48,0.00,CLR,BKN,0.00,WeatherDisplay:10.37,2013-04-11 16:39:00,
2013-04-11 18:44:00,62.8,43.3,29.81,SSE,158,8.1,8.1,49,0.00,CLR,BKN,0.00,WeatherDisplay:10.37,2013-04-11 16:44:00,
2013-04-11 18:49:00,62.6,43.2,29.81,South,180,8.1,8.1,49,0.00,CLR,BKN,0.00,WeatherDisplay:10.37,2013-04-11 16:49:00,
2013-04-11 18:54:00,62.4,43.5,29.81,SE,135,5.8,5.8,50,0.00,CLR,BKN,0.00,WeatherDisplay:10.37,2013-04-11 16:54:00,
2013-04-11 18:59:00,62.2,43.9,29.81,South,180,8.1,8.1,51,0.00,CLR,BKN,0.00,WeatherDisplay:10.37,2013-04-11 16:59:00,
2013-04-11 19:04:00,62.1,43.7,29.81,South,180,8.1,8.1,51,0.00,CLR,BKN,0.00,WeatherDisplay:10.37,2013-04-11 17:04:00,
2013-04-11 19:09:00,61.9,43.5,29.81,South,180,6.9,6.9,51,0.00,CLR,BKN,0.00,WeatherDisplay:10.37,2013-04-11 17:09:00,
2013-04-11 19:14:00,61.5,43.2,29.81,South,180,6.0,6.0,51,0.00,CLR,BKN,0.00,WeatherDisplay:10.37,2013-04-11 17:14:00,
2013-04-11 19:19:00,61.3,43.6,29.81,South,180,6.9,6.9,52,0.00,CLR,BKN,0.00,WeatherDisplay:10.37,2013-04-11 17:19:00,
2013-04-11 19:24:00,61.2,43.4,29.81,SE,135,8.1,8.1,52,0.00,CLR,BKN,0.00,WeatherDisplay:10.37,2013-04-11 17:24:00,
2013-04-11 19:29:00,61.0,43.2,29.82,South,180,8.3,8.3,52,0.00,CLR,BKN,0.00,WeatherDisplay:10.37,2013-04-11 17:29:00,
2013-04-11 19:34:00,61.0,43.2,29.81,SSW,202,8.1,8.1,52,0.00,CLR,BKN,0.00,WeatherDisplay:10.37,2013-04-11 17:34:00,
2013-04-11 19:39:00,60.8,43.1,29.82,South,180,9.2,9.2,52,0.00,CLR,BKN,0.00,WeatherDisplay:10.37,2013-04-11 17:39:00,
2013-04-11 19:44:00,60.8,43.6,29.82,South,180,8.1,8.1,53,0.00,CLR,BKN,0.00,WeatherDisplay:10.37,2013-04-11 17:44:00,
2013-04-11 19:49:00,60.8,43.6,29.82,South,180,6.9,6.9,53,0.00,CLR,BKN,0.00,WeatherDisplay:10.37,2013-04-11 17:49:00,
2013-04-11 19:54:00,60.8,43.6,29.82,SE,135,8.3,8.3,53,0.00,CLR,BKN,0.00,WeatherDisplay:10.37,2013-04-11 17:54:00,
2013-04-11 19:59:00,60.8,43.6,29.83,South,180,9.2,9.2,53,0.00,CLR,BKN,0.00,WeatherDisplay:10.37,2013-04-11 17:59:00,
2013-04-11 20:04:00,60.6,43.9,29.81,South,180,11.4,11.4,54,0.00,CLR,BKN,0.00,WeatherDisplay:10.37,2013-04-11 18:04:00,
2013-04-11 20:10:00,60.6,43.9,29.82,SSE,160,7.0,12.0,54,0.00,CLR,BKN,0.00,WeatherDisplay:10.37,2013-04-11 18:10:00,
2013-04-11 20:15:00,60.3,43.6,29.82,SSE,166,5.0,9.0,54,0.00,CLR,BKN,0.00,WeatherDisplay:10.37,2013-04-11 18:15:00,
2013-04-11 20:20:00,60.1,43.4,29.82,SSE,155,6.0,11.0,54,0.00,CLR,BKN,0.00,WeatherDisplay:10.37,2013-04-11 18:20:00,
2013-04-11 20:25:00,59.9,43.7,29.81,South,180,11.5,11.5,55,0.00,CLR,BKN,0.00,WeatherDisplay:10.37,2013-04-11 18:25:00,
2013-04-11 20:30:00,59.7,43.5,29.82,SSE,158,10.4,10.4,55,0.00,CLR,BKN,0.00,WeatherDisplay:10.37,2013-04-11 18:30:00,
2013-04-11 20:35:00,59.5,43.3,29.82,SE,135,10.4,10.4,55,0.00,CLR,BKN,0.00,WeatherDisplay:10.37,2013-04-11 18:35:00,
2013-04-11 20:40:00,59.2,43.5,29.82,ESE,112,10.4,10.4,56,0.00,CLR,BKN,0.00,WeatherDisplay:10.37,2013-04-11 18:40:00,
2013-04-11 20:45:00,59.0,43.3,29.82,South,180,6.9,6.9,56,0.00,CLR,BKN,0.00,WeatherDisplay:10.37,2013-04-11 18:45:00,
2013-04-11 20:50:00,58.8,43.6,29.82,South,180,8.3,8.3,57,0.00,CLR,BKN,0.00,WeatherDisplay:10.37,2013-04-11 18:50:00,
2013-04-11 20:55:00,58.6,43.9,29.83,South,180,9.2,9.2,58,0.00,CLR,BKN,0.00,WeatherDisplay:10.37,2013-04-11 18:55:00,
2013-04-11 21:00:00,58.5,43.7,29.83,South,180,6.0,6.0,58,0.00,CLR,BKN,0.00,WeatherDisplay:10.37,2013-04-11 19:00:00,
2013-04-11 21:05:00,58.1,43.4,29.83,South,180,6.9,6.9,58,0.00,CLR,BKN,0.00,WeatherDisplay:10.37,2013-04-11 19:05:00,
2013-04-11 21:10:00,57.9,43.7,29.83,South,180,6.9,6.9,59,0.00,CLR,BKN,0.00,WeatherDisplay:10.37,2013-04-11 19:10:00,
2013-04-11 21:15:00,57.7,43.5,29.82,South,180,8.1,8.1,59,0.00,CLR,BKN,0.00,WeatherDisplay:10.37,2013-04-11 19:15:00,
2013-04-11 21:20:00,57.4,43.6,29.81,South,180,9.2,9.2,60,0.00,CLR,BKN,0.00,WeatherDisplay:10.37,2013-04-11 19:20:00,
2013-04-11 21:25:00,57.4,43.6,29.82,SE,135,8.1,8.1,60,0.00,CLR,BKN,0.00,WeatherDisplay:10.37,2013-04-11 19:25:00,
2013-04-11 21:31:00,57.0,44.1,29.82,SE,135,6.0,6.0,62,0.00,CLR,BKN,0.00,WeatherDisplay:10.37,2013-04-11 19:31:00,
2013-04-11 21:36:00,56.8,44.0,29.81,South,180,6.9,6.9,62,0.00,CLR,BKN,0.00,WeatherDisplay:10.37,2013-04-11 19:36:00,
2013-04-11 21:42:00,56.7,43.8,29.82,SE,135,5.8,5.8,62,0.00,CLR,BKN,0.00,WeatherDisplay:10.37,2013-04-11 19:42:00,
2013-04-11 21:47:00,56.3,43.4,29.82,SE,135,4.6,4.6,62,0.00,CLR,BKN,0.00,WeatherDisplay:10.37,2013-04-11 19:47:00,
2013-04-11 21:52:00,55.9,43.1,29.81,SE,135,4.5,4.5,62,0.00,CLR,BKN,0.00,WeatherDisplay:10.37,2013-04-11 19:52:00,
2013-04-11 21:57:00,55.6,42.8,29.82,SE,135,5.8,5.8,62,0.00,CLR,BKN,0.00,WeatherDisplay:10.37,2013-04-11 19:57:00,
2013-04-11 22:02:00,55.4,43.0,29.81,South,180,4.6,4.6,63,0.00,CLR,BKN,0.00,WeatherDisplay:10.37,2013-04-11 20:02:00,
2013-04-11 22:07:00,54.9,42.5,29.81,South,180,5.8,5.8,63,0.00,CLR,BKN,0.00,WeatherDisplay:10.37,2013-04-11 20:07:00,
2013-04-11 22:12:00,54.7,42.7,29.81,SSE,158,6.0,6.0,64,0.00,CLR,BKN,0.00,WeatherDisplay:10.37,2013-04-11 20:12:00,
2013-04-11 22:18:00,54.7,42.7,29.81,South,180,5.8,5.8,64,0.00,CLR,BKN,0.00,WeatherDisplay:10.37,2013-04-11 20:18:00,
2013-04-11 22:23:00,54.7,43.1,29.81,South,180,6.9,6.9,65,0.00,CLR,BKN,0.00,WeatherDisplay:10.37,2013-04-11 20:23:00,
2013-04-11 22:28:00,54.7,43.1,29.80,South,180,5.8,5.8,65,0.00,CLR,BKN,0.00,WeatherDisplay:10.37,2013-04-11 20:28:00,
2013-04-11 22:34:00,54.5,42.6,29.80,South,180,8.3,8.3,64,0.00,CLR,BKN,0.00,WeatherDisplay:10.37,2013-04-11 20:34:00,
2013-04-11 22:39:00,54.5,42.6,29.81,South,180,7.6,7.6,64,0.00,CLR,BKN,0.00,WeatherDisplay:10.37,2013-04-11 20:39:00,
2013-04-11 22:44:00,54.3,42.4,29.81,South,180,6.9,6.9,64,0.00,CLR,BKN,0.00,WeatherDisplay:10.37,2013-04-11 20:44:00,
2013-04-11 22:49:00,54.1,42.6,29.80,South,180,6.9,6.9,65,0.00,CLR,BKN,0.00,WeatherDisplay:10.37,2013-04-11 20:49:00,
2013-04-11 22:55:00,54.0,42.5,29.81,South,188,3.0,8.0,65,0.00,CLR,BKN,0.00,WeatherDisplay:10.37,2013-04-11 20:55:00,
2013-04-11 23:00:00,53.9,42.4,29.81,South,187,3.0,8.0,65,0.00,CLR,BKN,0.00,WeatherDisplay:10.37,2013-04-11 21:00:00,
2013-04-11 23:05:00,53.6,41.7,29.80,South,181,3.0,8.0,64,0.00,CLR,BKN,0.00,WeatherDisplay:10.37,2013-04-11 21:05:00,
2013-04-11 23:10:00,53.6,41.7,29.80,South,170,2.0,6.0,64,0.00,CLR,BKN,0.00,WeatherDisplay:10.37,2013-04-11 21:10:00,
2013-04-11 23:15:00,53.4,41.9,29.80,SSE,161,3.0,5.0,65,0.00,CLR,BKN,0.00,WeatherDisplay:10.37,2013-04-11 21:15:00,
2013-04-11 23:20:00,53.1,41.6,29.80,South,180,3.8,3.8,65,0.00,CLR,BKN,0.00,WeatherDisplay:10.37,2013-04-11 21:20:00,
2013-04-11 23:25:00,52.7,41.3,29.80,SE,135,4.6,4.6,65,0.00,CLR,BKN,0.00,WeatherDisplay:10.37,2013-04-11 21:25:00,
2013-04-11 23:30:00,52.5,41.1,29.80,South,180,5.8,5.8,65,0.00,CLR,BKN,0.00,WeatherDisplay:10.37,2013-04-11 21:30:00,
2013-04-11 23:35:00,52.5,41.1,29.80,South,180,8.3,8.3,65,0.00,CLR,BKN,0.00,WeatherDisplay:10.37,2013-04-11 21:35:00,
2013-04-11 23:40:00,52.5,41.5,29.80,South,180,6.0,6.0,66,0.00,CLR,BKN,0.00,WeatherDisplay:10.37,2013-04-11 21:40:00,
2013-04-11 23:46:00,52.5,41.5,29.80,SE,135,6.9,6.9,66,0.00,CLR,BKN,0.00,WeatherDisplay:10.37,2013-04-11 21:46:00,
2013-04-11 23:51:00,52.5,41.5,29.80,SE,135,6.9,6.9,66,0.00,CLR,BKN,0.00,WeatherDisplay:10.37,2013-04-11 21:51:00,
2013-04-11 23:56:00,52.3,41.3,29.80,South,180,5.8,5.8,66,0.00,CLR,BKN,0.00,WeatherDisplay:10.37,2013-04-11 21:56:00,